Terminal Aerodrome Forecast
Issued by NWS Charleston, WV

Current Version | Previous Version | Text Only | Print | Product List | Glossary Off
Versions: 1 2 3 4 5 6 7 8 9 10 11 12 13 14 15 16 17 18 19 20 21 22 23 24 25

000
FTUS41 KRLX 161403 AAA
TAFCRW
TAF AMD
KCRW 161403Z 1614/1712 00000KT 4SM BR BKN005 OVC015
      TEMPO 1616/1617 OVC015
     FM161700 VRB03KT P6SM SCT005 OVC015
     FM161900 VRB03KT P6SM OVC060
     FM170700 15004KT 5SM -SHRA OVC060=

USA.gov is the U.S. government's official web portal to all federal, state and local government web resources and services.